Hayataka Maru — JJ4041 — position and weather

sailwx.info

Track history (hours):
 
Tides and Currents Weather Stations Pressure Air Temp Water Temp Dewpoint Dewpoint Depression Visibility Wind Speed Wind Dir Waves Ship Positions

Hayataka Maru

Last reported at 2018-Jul-22 10:04 UTC. Time now 2018-Jul-23 06:09 UTC.
Position N 34°46' E 134°41'.

Length 37 m.

MMSI: 431301625.

Date/timePositionNaut miles runAvg speedWind from/ knotsBaromVisibWave heightAir tempDewpointWater temp
2018-Jul-22 10:04N 34°46' E 134°41'  
2018-Jul-18 20:29N 34°45' E 134°41'4 6.8
2018-Jul-18 19:52N 34°41' E 134°41'1 2.6
2018-Jul-18 19:26N 34°40' E 134°41'  
2018-Jul-16 13:31N 34°41' E 134°48'014.1
2018-Jul-16 13:30N 34°41' E 134°48'914.1
2018-Jul-16 12:52N 34°38' E 134°58'616.0
2018-Jul-16 12:30N 34°35' E 135°05'2 3.1
2018-Jul-16 12:00N 34°34' E 135°06'0 0.1
2018-Jul-16 11:28N 34°34' E 135°06'0 0.1
2018-Jul-16 11:00N 34°34' E 135°06'0 0.1
2018-Jul-16 10:31N 34°34' E 135°06'0 0.2
2018-Jul-16 10:00N 34°34' E 135°06'0 0.0
2018-Jul-16 09:30N 34°34' E 135°06'0 0.0
2018-Jul-16 08:58N 34°34' E 135°06'3 7.1
2018-Jul-16 08:30N 34°36' E 135°03'815.1
2018-Jul-16 07:57N 34°38' E 134°53'16 0.6
2018-Jul-15 07:01N 34°44' E 134°35'010.0
2018-Jul-15 07:00N 34°44' E 134°35'0 0.0
2018-Jul-14 21:41N 34°44' E 134°34'0 0.0
2018-Jul-13 12:46N 34°44' E 134°35'1 0.0
2018-Jul-12 23:09N 34°44' E 134°34'  
Track history (hours):
 
Tides and Currents Weather Stations Pressure Air Temp Water Temp Dewpoint Dewpoint Depression Visibility Wind Speed Wind Dir Waves Ship Positions

Hayataka Maru

Last reported at 2018-Jul-22 10:04 UTC. Time now 2018-Jul-23 06:09 UTC.
Position N 34°46' E 134°41'.

Length 37 m.

MMSI: 431301625.

Date/timePositionNaut miles runAvg speedWind from/ knotsBaromVisibWave heightAir tempDewpointWater temp
2018-Jul-22 10:04N 34°46' E 134°41'  
2018-Jul-18 20:29N 34°45' E 134°41'4 6.8
2018-Jul-18 19:52N 34°41' E 134°41'1 2.6
2018-Jul-18 19:26N 34°40' E 134°41'  
2018-Jul-16 13:31N 34°41' E 134°48'014.1
2018-Jul-16 13:30N 34°41' E 134°48'914.1
2018-Jul-16 12:52N 34°38' E 134°58'616.0
2018-Jul-16 12:30N 34°35' E 135°05'2 3.1
2018-Jul-16 12:00N 34°34' E 135°06'0 0.1
2018-Jul-16 11:28N 34°34' E 135°06'0 0.1
2018-Jul-16 11:00N 34°34' E 135°06'0 0.1
2018-Jul-16 10:31N 34°34' E 135°06'0 0.2
2018-Jul-16 10:00N 34°34' E 135°06'0 0.0
2018-Jul-16 09:30N 34°34' E 135°06'0 0.0
2018-Jul-16 08:58N 34°34' E 135°06'3 7.1
2018-Jul-16 08:30N 34°36' E 135°03'815.1
2018-Jul-16 07:57N 34°38' E 134°53'16 0.6
2018-Jul-15 07:01N 34°44' E 134°35'010.0
2018-Jul-15 07:00N 34°44' E 134°35'0 0.0
2018-Jul-14 21:41N 34°44' E 134°34'0 0.0
2018-Jul-13 12:46N 34°44' E 134°35'1 0.0
2018-Jul-12 23:09N 34°44' E 134°34'  

Dump ship's entire track history